Time;durP1;ratioP1;P1;durP2;ratioP2;P2;SDS_P1;SDS_P2;PMS_P1;PMS_P2;Temp;Humidity;BMP_temperature;BMP_pressure;BME280_temperature;BME280_humidity;BME280_pressure;Samples;Min_cycle;Max_cycle;Signal;HPM_P1;HPM_P2
2022/04/11 04:00:28;;;;;;;11.68;8.38;;;0.60;99.90;;;;;;6250164;22;20005;-71
2022/04/11 04:03:07;;;;;;;12.77;7.90;;;0.60;99.90;;;;;;6255283;22;20067;-71
2022/04/11 04:05:32;;;;;;;9.27;7.22;;;0.60;99.90;;;;;;6228051;22;20015;-71
2022/04/11 04:07:58;;;;;;;14.45;7.70;;;0.60;99.90;;;;;;6254832;22;20019;-71
2022/04/11 04:10:26;;;;;;;11.80;7.30;;;0.60;99.90;;;;;;6254882;22;20368;-71
2022/04/11 04:12:57;;;;;;;10.57;7.22;;;0.60;99.90;;;;;;6255280;22;20009;-71
2022/04/11 04:15:23;;;;;;;10.60;6.85;;;0.60;99.90;;;;;;6239726;22;20021;-73
2022/04/11 04:17:51;;;;;;;11.98;7.18;;;0.60;99.90;;;;;;6255073;22;20013;-74
2022/04/11 04:20:16;;;;;;;9.25;7.18;;;0.50;99.90;;;;;;6255052;22;20004;-74
2022/04/11 04:22:42;;;;;;;9.00;6.35;;;0.50;99.90;;;;;;6255177;22;20020;-74
2022/04/11 04:25:08;;;;;;;10.95;6.30;;;0.50;99.90;;;;;;6254943;22;20023;-74
2022/04/11 04:27:34;;;;;;;8.30;6.30;;;0.50;99.90;;;;;;6255196;22;20080;-74
2022/04/11 04:30:00;;;;;;;9.55;6.57;;;0.50;99.90;;;;;;6254432;22;20005;-76
2022/04/11 04:32:26;;;;;;;8.85;6.40;;;0.50;99.90;;;;;;6258778;22;20023;-74
2022/04/11 04:34:51;;;;;;;9.57;6.22;;;0.50;99.90;;;;;;6257086;22;20066;-74
2022/04/11 04:37:17;;;;;;;11.73;8.13;;;0.50;99.90;;;;;;6256875;22;20058;-74
2022/04/11 04:39:43;;;;;;;14.15;8.50;;;0.60;99.90;;;;;;6256267;22;20008;-74
2022/04/11 04:42:08;;;;;;;16.52;8.80;;;0.70;99.90;;;;;;6255387;22;20019;-74
2022/04/11 04:44:39;;;;;;;11.55;8.05;;;0.70;99.90;;;;;;6254467;22;20821;-74
2022/04/11 04:47:05;;;;;;;17.15;8.93;;;0.70;99.90;;;;;;6253233;22;20017;-74
2022/04/11 04:49:31;;;;;;;12.88;7.60;;;0.60;99.90;;;;;;6253467;22;20083;-74
2022/04/11 04:51:57;;;;;;;9.38;6.78;;;0.60;99.90;;;;;;6254309;22;20032;-74
2022/04/11 04:54:22;;;;;;;10.82;7.47;;;0.60;99.90;;;;;;6255639;22;20008;-74
2022/04/11 04:56:49;;;;;;;9.68;6.32;;;0.50;99.90;;;;;;6254377;22;20444;-74
2022/04/11 04:59:15;;;;;;;8.55;6.13;;;0.50;99.90;;;;;;6256368;22;20004;-74
2022/04/11 05:01:40;;;;;;;10.68;7.28;;;0.50;99.90;;;;;;6254756;22;20008;-74
2022/04/11 05:04:06;;;;;;;8.85;6.10;;;0.50;99.90;;;;;;6254337;22;20013;-75
2022/04/11 05:06:32;;;;;;;12.93;6.93;;;0.50;99.90;;;;;;6255486;22;20008;-75
2022/04/11 05:08:57;;;;;;;10.13;6.85;;;0.50;99.90;;;;;;6253832;22;20036;-77
2022/04/11 05:11:24;;;;;;;13.50;7.20;;;0.50;99.90;;;;;;6255074;22;20001;-75
2022/04/11 05:13:50;;;;;;;13.00;7.40;;;0.40;99.90;;;;;;6253095;22;20171;-75
2022/04/11 05:16:15;;;;;;;15.52;8.25;;;0.30;99.90;;;;;;6280521;22;20094;-76
2022/04/11 05:18:41;;;;;;;17.67;7.78;;;0.40;99.90;;;;;;6283325;22;20047;-77
2022/04/11 05:21:07;;;;;;;14.40;8.13;;;0.40;99.90;;;;;;6283662;22;20004;-76
2022/04/11 05:23:32;;;;;;;14.88;7.72;;;0.40;99.90;;;;;;6283549;22;20008;-76
2022/04/11 05:25:58;;;;;;;15.90;9.57;;;0.40;99.90;;;;;;6283576;22;20008;-76
2022/04/11 05:28:24;;;;;;;14.77;8.95;;;0.40;99.90;;;;;;6283753;22;20008;-76
2022/04/11 05:30:49;;;;;;;14.70;9.88;;;0.40;99.90;;;;;;6256539;22;20054;-76
2022/04/11 05:33:15;;;;;;;17.27;10.40;;;0.40;99.90;;;;;;6283739;22;20054;-76
2022/04/11 05:35:41;;;;;;;16.85;10.75;;;0.30;99.90;;;;;;6257014;22;20031;-77
2022/04/11 05:38:07;;;;;;;17.55;10.63;;;0.30;99.90;;;;;;6283743;22;20012;-76
2022/04/11 05:40:33;;;;;;;15.15;9.75;;;0.30;99.90;;;;;;6283953;22;20007;-76
2022/04/11 05:42:58;;;;;;;17.55;9.70;;;0.30;99.90;;;;;;6283488;22;20014;-77
2022/04/11 05:45:24;;;;;;;17.35;10.25;;;0.30;99.90;;;;;;6283001;22;20079;-76
2022/04/11 05:47:49;;;;;;;16.63;9.52;;;0.30;99.90;;;;;;6283273;22;20479;-77
2022/04/11 05:50:15;;;;;;;15.75;8.98;;;0.40;99.90;;;;;;6255990;22;20083;-76
2022/04/11 05:52:41;;;;;;;13.82;8.82;;;0.40;99.90;;;;;;6283833;22;20328;-76
2022/04/11 05:55:07;;;;;;;12.30;9.07;;;0.50;99.90;;;;;;6283366;22;20004;-77
2022/04/11 05:57:32;;;;;;;11.98;8.55;;;0.60;99.90;;;;;;6283304;22;20436;-77
2022/04/11 05:59:58;;;;;;;15.15;9.05;;;0.60;99.90;;;;;;6255167;22;20004;-76
2022/04/11 06:02:23;;;;;;;14.57;9.00;;;0.70;99.90;;;;;;6283264;22;20011;-76
2022/04/11 06:04:49;;;;;;;13.55;9.10;;;0.70;99.90;;;;;;6282788;22;20004;-78
2022/04/11 06:07:16;;;;;;;15.02;8.43;;;0.80;99.90;;;;;;6256161;22;20050;-77
2022/04/11 06:09:42;;;;;;;16.65;9.73;;;0.90;99.90;;;;;;6283238;22;20000;-75
2022/04/11 06:12:10;;;;;;;12.10;9.00;;;0.90;99.90;;;;;;6283587;22;20071;-76
2022/04/11 06:14:36;;;;;;;17.33;9.18;;;0.90;99.90;;;;;;6282750;22;20012;-76
2022/04/11 06:17:01;;;;;;;15.25;8.55;;;0.90;99.90;;;;;;6283303;22;20004;-76
2022/04/11 06:19:27;;;;;;;15.48;9.10;;;1.00;99.90;;;;;;6255703;22;20027;-76
2022/04/11 06:21:52;;;;;;;14.75;9.15;;;1.10;99.90;;;;;;6283537;22;20066;-76
2022/04/11 06:24:18;;;;;;;13.38;8.73;;;1.20;99.90;;;;;;6283465;22;20039;-76
2022/04/11 06:26:44;;;;;;;16.77;9.57;;;1.20;99.90;;;;;;6283373;22;20004;-77
2022/04/11 06:29:10;;;;;;;14.55;9.57;;;1.30;99.90;;;;;;6255773;22;20320;-76
2022/04/11 06:31:35;;;;;;;14.00;9.85;;;1.40;99.90;;;;;;6283674;22;20004;-76
2022/04/11 06:34:01;;;;;;;14.43;10.10;;;1.50;99.90;;;;;;6283650;22;20004;-77
2022/04/11 06:36:26;;;;;;;16.75;9.45;;;1.60;99.90;;;;;;6283787;22;20527;-76
2022/04/11 06:38:52;;;;;;;14.25;9.50;;;1.60;99.90;;;;;;6287327;22;20004;-76
2022/04/11 06:41:17;;;;;;;14.82;9.60;;;1.70;99.90;;;;;;6289540;22;20079;-77
2022/04/11 06:43:43;;;;;;;15.05;9.43;;;1.80;99.90;;;;;;6279677;22;20001;-78
2022/04/11 06:46:08;;;;;;;11.95;8.65;;;1.90;99.90;;;;;;6299495;22;20043;-78
2022/04/11 06:48:34;;;;;;;11.15;8.95;;;1.90;99.90;;;;;;6288030;22;20040;-78
2022/04/11 06:51:00;;;;;;;12.13;8.95;;;2.10;99.90;;;;;;6287422;22;20487;-78
2022/04/11 06:53:25;;;;;;;14.48;10.10;;;2.20;99.90;;;;;;6258278;22;20070;-78
2022/04/11 06:55:51;;;;;;;13.68;9.45;;;2.30;99.90;;;;;;6283919;22;20000;-78
2022/04/11 06:58:17;;;;;;;13.52;9.38;;;2.40;99.90;;;;;;6256512;22;20008;-78
2022/04/11 07:00:44;;;;;;;14.20;8.90;;;2.50;99.90;;;;;;6258314;22;20013;-78
2022/04/11 07:03:10;;;;;;;15.98;8.90;;;2.60;99.90;;;;;;6259554;22;20106;-78
2022/04/11 07:05:37;;;;;;;17.27;8.82;;;2.70;99.90;;;;;;6259733;22;20440;-78
2022/04/11 07:08:03;;;;;;;15.82;9.32;;;2.90;99.90;;;;;;6259647;22;20779;-78
2022/04/11 07:10:30;;;;;;;15.15;8.70;;;3.00;99.90;;;;;;6258154;22;20008;-78
2022/04/11 07:12:56;;;;;;;14.13;10.20;;;3.20;99.90;;;;;;6259865;22;20091;-79
2022/04/11 07:15:21;;;;;;;13.68;8.95;;;3.30;99.90;;;;;;6286460;22;20411;-78
2022/04/11 07:17:47;;;;;;;16.15;9.30;;;3.50;99.90;;;;;;6287141;22;20027;-79
2022/04/11 07:20:14;;;;;;;12.77;8.57;;;3.60;99.90;;;;;;6258243;22;20561;-78
2022/04/11 07:22:39;;;;;;;13.90;9.65;;;3.80;99.90;;;;;;6258979;22;20331;-79
2022/04/11 07:25:05;;;;;;;17.48;10.32;;;4.00;99.90;;;;;;6286598;22;20011;-78
2022/04/11 07:27:31;;;;;;;11.07;8.85;;;4.20;99.90;;;;;;6261006;22;20008;-78
2022/04/11 07:29:56;;;;;;;11.68;8.57;;;4.40;99.90;;;;;;6287530;22;20004;-79
2022/04/11 07:32:22;;;;;;;11.27;8.40;;;4.60;99.90;;;;;;6289469;22;20119;-81
2022/04/11 07:34:48;;;;;;;12.98;8.30;;;4.80;99.90;;;;;;6261463;22;20039;-78
2022/04/11 07:37:14;;;;;;;13.32;8.88;;;5.00;99.90;;;;;;6287153;22;20003;-77
2022/04/11 07:39:39;;;;;;;15.18;9.38;;;5.30;99.90;;;;;;6255510;22;20004;-76
2022/04/11 07:42:05;;;;;;;12.98;8.57;;;5.40;99.90;;;;;;6282814;22;20019;-77
2022/04/11 07:44:30;;;;;;;14.20;8.32;;;5.50;99.90;;;;;;6282541;22;20018;-76
2022/04/11 07:46:56;;;;;;;12.15;7.85;;;5.70;99.90;;;;;;6281413;22;20008;-77
2022/04/11 07:49:21;;;;;;;10.80;7.47;;;5.90;99.90;;;;;;6282164;22;20008;-77
2022/04/11 07:51:47;;;;;;;9.90;7.13;;;6.10;99.90;;;;;;6283049;22;20436;-78
2022/04/11 07:54:13;;;;;;;9.23;6.78;;;6.30;99.90;;;;;;6282974;22;20008;-77
2022/04/11 07:56:38;;;;;;;9.52;5.95;;;6.50;99.90;;;;;;6255171;22;20036;-78
2022/04/11 07:59:04;;;;;;;10.23;6.60;;;6.70;99.90;;;;;;6255155;22;20008;-78
2022/04/11 08:01:29;;;;;;;9.95;5.90;;;7.00;99.90;;;;;;6283076;22;20086;-77
2022/04/11 08:03:55;;;;;;;9.32;5.93;;;7.20;99.90;;;;;;6282666;22;20009;-77
2022/04/11 08:06:21;;;;;;;8.38;5.45;;;7.40;99.90;;;;;;6282802;22;20004;-77
2022/04/11 08:08:47;;;;;;;10.63;4.88;;;7.60;99.90;;;;;;6282520;22;20010;-77
2022/04/11 08:11:17;;;;;;;7.57;5.55;;;7.90;99.90;;;;;;6283042;22;20004;-76
2022/04/11 08:13:43;;;;;;;8.55;5.30;;;8.00;99.90;;;;;;6283260;22;20011;-75
2022/04/11 08:16:11;;;;;;;7.90;4.70;;;8.20;99.90;;;;;;6254663;22;20062;-76
2022/04/11 08:18:36;;;;;;;7.25;4.00;;;8.40;99.90;;;;;;6282727;22;20395;-77
2022/04/11 08:21:03;;;;;;;5.13;3.60;;;8.60;99.90;;;;;;6282813;22;20009;-77
2022/04/11 08:23:29;;;;;;;6.65;4.05;;;8.80;99.90;;;;;;6256225;22;20478;-77
2022/04/11 08:25:55;;;;;;;7.40;3.97;;;9.00;99.90;;;;;;6256438;22;20004;-77
2022/04/11 08:28:21;;;;;;;10.18;4.13;;;9.30;99.90;;;;;;6283853;22;20004;-76
2022/04/11 08:30:47;;;;;;;4.85;3.70;;;9.40;99.90;;;;;;6284069;22;20084;-77
2022/04/11 08:33:12;;;;;;;4.88;3.28;;;9.50;99.90;;;;;;6284412;22;20008;-76
2022/04/11 08:35:38;;;;;;;6.95;3.70;;;9.70;99.90;;;;;;6284011;22;20412;-76
2022/04/11 08:38:04;;;;;;;5.95;3.30;;;9.90;99.90;;;;;;6283964;22;20011;-76
2022/04/11 08:40:30;;;;;;;6.82;4.20;;;10.00;99.90;;;;;;6284029;22;20031;-77
2022/04/11 08:42:56;;;;;;;5.72;3.65;;;10.20;99.90;;;;;;6283992;22;20019;-76
2022/04/11 08:45:23;;;;;;;7.40;3.30;;;10.20;99.90;;;;;;6283216;22;20001;-76
2022/04/11 08:47:56;;;;;;;4.68;3.05;;;10.30;99.40;;;;;;6283229;22;20004;-77
2022/04/11 08:50:23;;;;;;;5.43;3.53;;;10.30;99.80;;;;;;6284139;22;20015;-77
2022/04/11 08:52:50;;;;;;;4.90;3.53;;;10.40;99.60;;;;;;6284192;22;20035;-76
2022/04/11 08:55:16;;;;;;;4.95;3.30;;;10.50;98.90;;;;;;6257741;22;20008;-76
2022/04/11 08:57:41;;;;;;;8.80;3.35;;;10.50;97.50;;;;;;6284248;22;20074;-77
2022/04/11 09:00:07;;;;;;;4.25;3.05;;;10.70;98.20;;;;;;6283762;22;20498;-78
2022/04/11 09:02:34;;;;;;;4.45;2.90;;;10.80;97.10;;;;;;6261693;22;20008;-79
2022/04/11 09:05:00;;;;;;;8.50;3.00;;;10.90;97.90;;;;;;6289793;22;20159;-78
2022/04/11 09:07:25;;;;;;;5.25;3.20;;;11.10;98.00;;;;;;6285456;22;20054;-78
2022/04/11 09:09:51;;;;;;;3.55;2.60;;;11.20;95.50;;;;;;6256438;22;20004;-79
2022/04/11 09:12:18;;;;;;;4.18;2.80;;;11.30;95.60;;;;;;6284002;22;20012;-78
2022/04/11 09:14:51;;;;;;;3.38;2.72;;;11.50;95.70;;;;;;6285957;22;20011;-76
2022/04/11 09:17:17;;;;;;;2.97;2.30;;;11.60;95.30;;;;;;6287758;22;20471;-78
2022/04/11 09:19:43;;;;;;;3.75;2.30;;;11.90;94.10;;;;;;6287884;22;20012;-76
2022/04/11 09:22:09;;;;;;;6.00;2.83;;;12.00;94.30;;;;;;6290116;22;20004;-76
2022/04/11 09:24:35;;;;;;;4.32;2.72;;;12.20;93.00;;;;;;6304938;22;20004;-77
2022/04/11 09:27:02;;;;;;;5.05;2.80;;;12.00;92.70;;;;;;6261044;22;20000;-76
2022/04/11 09:29:32;;;;;;;14.10;4.30;;;12.20;92.00;;;;;;6282862;22;20067;-76
2022/04/11 09:32:04;;;;;;;2.85;2.20;;;12.40;92.00;;;;;;6286731;22;20110;-76
2022/04/11 09:34:30;;;;;;;6.30;3.05;;;12.50;90.80;;;;;;6258749;22;20008;-76
2022/04/11 09:36:57;;;;;;;8.48;2.58;;;12.50;89.80;;;;;;6285778;22;20038;-76
2022/04/11 09:39:44;;;;;;;8.15;4.60;;;12.70;90.00;;;;;;6285983;22;20471;-76
2022/04/11 09:42:09;;;;;;;8.25;3.00;;;12.70;88.50;;;;;;6282843;22;20012;-76
2022/04/11 09:44:35;;;;;;;6.30;3.20;;;12.80;86.90;;;;;;6258057;22;20381;-75
2022/04/11 09:47:04;;;;;;;3.22;1.92;;;13.00;87.40;;;;;;6286166;22;20004;-76
2022/04/11 09:49:31;;;;;;;5.20;3.22;;;13.00;83.70;;;;;;6283975;22;20077;-76
2022/04/11 09:52:08;;;;;;;2.97;1.80;;;13.10;83.20;;;;;;6259015;22;20074;-76
2022/04/11 09:54:43;;;;;;;3.45;1.80;;;13.20;83.20;;;;;;6286414;22;20000;-77
2022/04/11 09:57:11;;;;;;;3.03;1.73;;;13.40;81.50;;;;;;6286684;22;20439;-78
2022/04/11 09:59:39;;;;;;;3.58;1.98;;;13.60;79.90;;;;;;6286481;22;20004;-76
2022/04/11 10:02:06;;;;;;;3.60;1.67;;;13.50;80.50;;;;;;6258543;22;20032;-78
2022/04/11 10:04:31;;;;;;;4.65;1.83;;;13.40;81.00;;;;;;6258294;22;20455;-78
2022/04/11 10:06:57;;;;;;;3.25;1.75;;;13.40;83.30;;;;;;6259509;22;20079;-78
2022/04/11 10:09:23;;;;;;;3.33;2.28;;;13.70;81.80;;;;;;6286021;22;20432;-79
2022/04/11 10:11:54;;;;;;;9.95;5.90;;;13.80;80.70;;;;;;6284817;22;20012;-77
2022/04/11 10:14:23;;;;;;;3.13;1.80;;;14.10;80.40;;;;;;6287894;22;20004;-77
2022/04/11 10:16:53;;;;;;;8.70;3.95;;;14.40;83.10;;;;;;6258138;22;20355;-76
2022/04/11 10:19:31;;;;;;;2.90;1.98;;;14.50;78.60;;;;;;6285860;22;20034;-75
2022/04/11 10:22:06;;;;;;;2.67;1.88;;;14.40;77.60;;;;;;6259022;22;20091;-78
2022/04/11 10:24:40;;;;;;;8.82;5.70;;;14.20;76.70;;;;;;6258498;22;20000;-75
2022/04/11 10:27:25;;;;;;;5.80;1.92;;;14.00;77.40;;;;;;6285613;22;20015;-75
2022/04/11 10:29:52;;;;;;;2.53;1.55;;;14.20;79.20;;;;;;6257618;22;20019;-76
2022/04/11 10:32:29;;;;;;;4.03;1.60;;;14.30;76.80;;;;;;6284092;22;20043;-77
2022/04/11 10:35:05;;;;;;;2.55;1.30;;;14.50;78.80;;;;;;6257885;22;20015;-76
2022/04/11 10:37:40;;;;;;;2.28;1.13;;;14.60;70.20;;;;;;6258441;22;20012;-76
2022/04/11 10:40:17;;;;;;;3.28;1.70;;;14.60;73.10;;;;;;6257994;22;20042;-75
2022/04/11 10:43:01;;;;;;;2.60;1.40;;;14.90;74.10;;;;;;6285178;22;20015;-75
2022/04/11 10:45:42;;;;;;;2.75;1.40;;;14.90;71.70;;;;;;6284373;22;20004;-73
2022/04/11 10:48:09;;;;;;;2.22;1.50;;;15.10;71.40;;;;;;6283225;22;20004;-76
2022/04/11 10:50:40;;;;;;;3.42;1.52;;;15.10;71.40;;;;;;6255945;22;21017;-76
2022/04/11 10:53:09;;;;;;;1.95;1.40;;;15.20;70.30;;;;;;6283345;22;20450;-76
2022/04/11 10:55:36;;;;;;;2.25;1.35;;;15.00;68.20;;;;;;6255660;22;20008;-75
2022/04/11 10:58:03;;;;;;;2.72;1.50;;;14.80;74.10;;;;;;6283311;22;20468;-77
2022/04/11 11:00:33;;;;;;;1.85;1.33;;;15.00;72.40;;;;;;6283342;22;20020;-75
2022/04/11 11:03:01;;;;;;;2.88;1.35;;;15.20;71.10;;;;;;6283276;22;20091;-76
2022/04/11 11:05:31;;;;;;;2.80;1.52;;;15.20;71.00;;;;;;6254870;22;20008;-75
2022/04/11 11:08:12;;;;;;;2.00;1.20;;;15.20;69.60;;;;;;6282963;22;19996;-76
2022/04/11 11:10:46;;;;;;;2.63;1.30;;;15.30;73.80;;;;;;6283298;22;20734;-80
2022/04/11 11:13:42;;;;;;;2.05;1.40;;;15.50;68.60;;;;;;6283414;22;20004;-77
2022/04/11 11:16:07;;;;;;;2.67;1.40;;;15.70;69.10;;;;;;6255615;22;20510;-77
2022/04/11 11:18:53;;;;;;;2.05;1.42;;;15.90;69.60;;;;;;6283010;22;20020;-77
2022/04/11 11:21:22;;;;;;;2.30;1.33;;;16.10;71.40;;;;;;6283564;22;20005;-76
2022/04/11 11:24:10;;;;;;;2.63;1.60;;;16.30;65.30;;;;;;6283151;22;20096;-77
2022/04/11 11:26:46;;;;;;;2.72;1.30;;;16.30;67.20;;;;;;6283205;22;20034;-77
2022/04/11 11:29:16;;;;;;;2.80;1.30;;;16.40;68.30;;;;;;6282859;22;20313;-76
2022/04/11 11:31:42;;;;;;;3.15;1.30;;;16.30;64.80;;;;;;6282116;22;20015;-76
2022/04/11 11:34:13;;;;;;;4.15;1.27;;;16.20;69.80;;;;;;6282825;22;20004;-76
2022/04/11 11:36:40;;;;;;;4.57;1.40;;;16.50;68.20;;;;;;6283036;22;20087;-77
2022/04/11 11:39:19;;;;;;;1.30;1.08;;;16.70;67.70;;;;;;6283146;22;20012;-76
2022/04/11 11:41:46;;;;;;;1.67;1.17;;;16.90;64.60;;;;;;6255579;22;20027;-77
2022/04/11 11:44:12;;;;;;;2.35;1.30;;;17.10;63.10;;;;;;6282607;22;20474;-78
2022/04/11 11:46:50;;;;;;;1.48;1.20;;;17.20;65.90;;;;;;6283036;22;20006;-77
2022/04/11 11:49:17;;;;;;;1.88;1.13;;;16.90;61.70;;;;;;6282739;22;20011;-77
2022/04/11 11:51:42;;;;;;;1.77;1.15;;;16.80;63.30;;;;;;6255539;22;20013;-77
2022/04/11 11:54:08;;;;;;;2.50;1.50;;;16.90;62.40;;;;;;6282379;22;20015;-78
2022/04/11 11:56:40;;;;;;;1.88;1.23;;;17.10;60.50;;;;;;6283837;22;20375;-77
2022/04/11 11:59:06;;;;;;;2.90;1.30;;;17.30;62.10;;;;;;6283667;22;20519;-77
2022/04/11 12:01:32;;;;;;;3.33;1.25;;;17.40;62.00;;;;;;6284685;22;20013;-76
2022/04/11 12:04:40;;;;;;;1.75;1.45;;;17.50;61.30;;;;;;6292317;22;20012;-77
2022/04/11 12:06:53;;;;;;;2.20;1.50;;;17.20;61.00;;;;;;6274280;22;20380;-77
2022/04/11 12:09:19;;;;;;;3.03;1.13;;;17.30;61.10;;;;;;6283741;22;20008;-77
2022/04/11 12:11:45;;;;;;;2.13;1.30;;;17.10;64.80;;;;;;6280187;22;20015;-77
2022/04/11 12:14:11;;;;;;;2.08;1.33;;;17.00;64.00;;;;;;6282165;22;20011;-77
2022/04/11 12:16:39;;;;;;;2.03;1.10;;;16.90;62.40;;;;;;6255947;22;20091;-77
2022/04/11 12:19:06;;;;;;;2.25;1.10;;;17.20;64.10;;;;;;6283657;22;20015;-77
2022/04/11 12:21:34;;;;;;;2.58;1.10;;;17.60;60.80;;;;;;6284176;22;20027;-77
2022/04/11 12:24:01;;;;;;;2.35;1.10;;;17.80;61.00;;;;;;6277958;22;20012;-77
2022/04/11 12:26:45;;;;;;;2.20;1.25;;;18.00;61.00;;;;;;6275121;22;20007;-77
2022/04/11 12:29:13;;;;;;;2.03;1.10;;;18.20;61.30;;;;;;6275746;22;20014;-77
2022/04/11 12:31:53;;;;;;;2.58;1.17;;;18.30;59.90;;;;;;6283940;22;20079;-77
2022/04/11 12:34:18;;;;;;;2.53;1.40;;;18.30;60.60;;;;;;6283474;22;22467;-74
2022/04/11 12:36:59;;;;;;;3.15;1.33;;;18.60;61.40;;;;;;6283944;22;20062;-75
2022/04/11 12:39:25;;;;;;;2.17;1.13;;;18.40;61.30;;;;;;6255623;22;20008;-75
2022/04/11 12:41:51;;;;;;;2.72;1.05;;;18.40;58.40;;;;;;6283812;22;20012;-75
2022/04/11 12:44:36;;;;;;;2.42;1.30;;;18.30;61.40;;;;;;6283227;22;20015;-75
2022/04/11 12:47:01;;;;;;;2.78;1.30;;;18.60;63.10;;;;;;6281737;22;20007;-74
2022/04/11 12:49:50;;;;;;;1.45;1.15;;;18.50;57.00;;;;;;6278209;22;20004;-75
2022/04/11 12:52:18;;;;;;;2.47;1.35;;;18.30;57.30;;;;;;6282587;22;20154;-75
2022/04/11 12:54:46;;;;;;;2.78;1.30;;;18.00;58.90;;;;;;6283098;22;20031;-75
2022/04/11 12:57:20;;;;;;;3.53;1.65;;;18.50;57.40;;;;;;6283703;22;20080;-74
2022/04/11 12:59:46;;;;;;;3.33;1.20;;;18.90;58.00;;;;;;6256040;22;20015;-75
2022/04/11 13:02:16;;;;;;;2.13;1.08;;;18.70;57.00;;;;;;6283727;22;20436;-74
2022/04/11 13:04:51;;;;;;;1.58;0.90;;;19.10;58.70;;;;;;6255650;22;20008;-75
2022/04/11 13:07:23;;;;;;;2.58;1.30;;;19.30;55.90;;;;;;6283662;22;20075;-75
2022/04/11 13:09:48;;;;;;;2.90;1.63;;;19.50;58.50;;;;;;6283168;22;20004;-75
2022/04/11 13:12:17;;;;;;;1.92;1.15;;;19.70;55.60;;;;;;6255930;22;20015;-75
2022/04/11 13:14:44;;;;;;;3.38;1.08;;;19.90;58.70;;;;;;6283053;22;20019;-75
2022/04/11 13:19:56;;;;;;;2.15;1.27;;;19.40;55.30;;;;;;6283423;22;20016;-75
2022/04/11 13:22:22;;;;;;;2.05;1.05;;;19.50;53.60;;;;;;6283543;22;20016;-76
2022/04/11 13:24:50;;;;;;;1.60;1.10;;;19.90;53.00;;;;;;6283246;22;20522;-75
2022/04/11 13:27:16;;;;;;;2.65;0.80;;;20.10;54.30;;;;;;6256260;22;20012;-75
2022/04/11 13:29:42;;;;;;;1.33;1.00;;;20.00;53.70;;;;;;6283465;22;20000;-75
2022/04/11 13:32:08;;;;;;;2.55;1.20;;;20.00;52.50;;;;;;6283573;22;20325;-75
2022/04/11 13:34:34;;;;;;;1.95;1.25;;;19.80;53.60;;;;;;6283397;22;20008;-75
2022/04/11 13:36:59;;;;;;;4.13;1.20;;;20.10;52.90;;;;;;6283681;22;20008;-76
2022/04/11 13:39:25;;;;;;;3.53;1.20;;;20.50;52.30;;;;;;6283340;22;20038;-75
2022/04/11 13:41:50;;;;;;;1.55;1.00;;;20.50;54.10;;;;;;6283454;22;20008;-75
2022/04/11 13:44:18;;;;;;;2.50;1.23;;;20.40;52.00;;;;;;6283206;22;20008;-75
2022/04/11 13:46:45;;;;;;;1.90;1.00;;;20.10;52.70;;;;;;6256102;22;20012;-75
2022/04/11 13:49:12;;;;;;;2.72;1.15;;;19.90;52.10;;;;;;6255863;22;20090;-76
2022/04/11 13:51:38;;;;;;;2.65;1.33;;;20.00;52.40;;;;;;6283270;22;20725;-76
2022/04/11 13:54:04;;;;;;;2.25;1.00;;;20.50;51.40;;;;;;6282975;22;20008;-75
2022/04/11 13:56:30;;;;;;;4.47;0.95;;;21.00;49.90;;;;;;6283407;22;20004;-74
2022/04/11 13:58:56;;;;;;;2.33;1.10;;;21.40;50.60;;;;;;6283226;22;20100;-77
2022/04/11 14:01:24;;;;;;;1.88;1.20;;;22.20;49.00;;;;;;6255978;22;20044;-73
2022/04/11 14:03:50;;;;;;;1.90;0.90;;;22.60;49.40;;;;;;6283631;22;20036;-76
2022/04/11 14:06:16;;;;;;;1.75;0.90;;;23.00;50.00;;;;;;6283286;22;20518;-76
2022/04/11 14:08:41;;;;;;;2.17;1.27;;;23.60;46.90;;;;;;6283262;22;20360;-75
2022/04/11 14:11:08;;;;;;;2.05;1.10;;;23.40;46.20;;;;;;6283249;22;20207;-76
2022/04/11 14:13:34;;;;;;;3.20;1.20;;;23.70;47.00;;;;;;6283537;22;20458;-76
2022/04/11 14:16:00;;;;;;;2.38;1.17;;;23.80;47.00;;;;;;6282602;22;20035;-76
2022/04/11 14:18:26;;;;;;;2.28;0.93;;;23.90;43.20;;;;;;6283346;22;20024;-77
2022/04/11 14:20:51;;;;;;;1.95;1.08;;;24.70;44.60;;;;;;6282941;22;20012;-75
2022/04/11 14:23:18;;;;;;;2.03;1.10;;;25.10;44.90;;;;;;6255957;22;20047;-75
2022/04/11 14:25:45;;;;;;;2.42;0.98;;;25.50;44.70;;;;;;6283423;22;20000;-76
2022/04/11 14:28:10;;;;;;;1.70;0.90;;;25.10;42.70;;;;;;6283294;22;20008;-76
2022/04/11 14:30:37;;;;;;;3.92;1.40;;;24.70;40.70;;;;;;6283310;22;20012;-76
2022/04/11 14:33:03;;;;;;;3.97;1.20;;;24.60;43.20;;;;;;6283000;22;20012;-76
2022/04/11 14:35:28;;;;;;;1.42;0.95;;;25.60;43.40;;;;;;6282262;22;20067;-75
2022/04/11 14:37:56;;;;;;;2.90;1.08;;;26.70;40.10;;;;;;6282915;22;20452;-76
2022/04/11 14:40:22;;;;;;;2.53;1.10;;;26.60;40.70;;;;;;6282855;22;20503;-76
2022/04/11 14:42:48;;;;;;;2.22;1.00;;;26.00;39.80;;;;;;6283899;22;20083;-77
2022/04/11 14:45:14;;;;;;;2.35;1.20;;;26.60;40.20;;;;;;6249904;22;20015;-76
2022/04/11 14:47:39;;;;;;;2.15;0.93;;;26.10;41.60;;;;;;6277550;22;20000;-76
2022/04/11 14:50:05;;;;;;;1.85;1.10;;;26.30;40.60;;;;;;6279964;22;20458;-76
2022/04/11 14:52:31;;;;;;;2.03;1.35;;;27.30;41.00;;;;;;6281504;22;20452;-76
2022/04/11 14:55:00;;;;;;;1.58;1.13;;;26.40;37.90;;;;;;6281961;22;20503;-76
2022/04/11 14:57:26;;;;;;;2.30;1.23;;;26.00;39.30;;;;;;6283328;22;20518;-76
2022/04/11 14:59:51;;;;;;;2.72;1.08;;;26.20;39.80;;;;;;6282711;22;20487;-76
2022/04/11 15:02:18;;;;;;;7.68;5.60;;;27.30;36.70;;;;;;6255631;22;20043;-76
2022/04/11 15:04:43;;;;;;;5.68;4.78;;;27.50;36.20;;;;;;6282935;22;20000;-76
2022/04/11 15:07:09;;;;;;;4.15;3.30;;;27.00;37.00;;;;;;6283059;22;20012;-76
2022/04/11 15:09:34;;;;;;;5.65;4.72;;;26.60;37.30;;;;;;6282677;22;20004;-76
2022/04/11 15:12:01;;;;;;;6.93;3.28;;;26.70;37.80;;;;;;6283014;22;20012;-76
2022/04/11 15:14:27;;;;;;;4.72;2.20;;;27.40;38.80;;;;;;6282569;22;20027;-76
2022/04/11 15:16:53;;;;;;;2.80;1.90;;;27.00;37.10;;;;;;6283355;22;20031;-77
2022/04/11 15:19:18;;;;;;;2.35;1.20;;;26.50;38.10;;;;;;6282764;22;20016;-76
2022/04/11 15:21:44;;;;;;;1.77;1.10;;;27.30;37.70;;;;;;6283146;22;20012;-76
2022/04/11 15:24:10;;;;;;;3.00;1.40;;;29.30;35.20;;;;;;6282963;22;20016;-76
2022/04/11 15:26:37;;;;;;;2.33;1.20;;;28.70;34.50;;;;;;6283078;22;20007;-76
2022/04/11 15:29:03;;;;;;;1.25;0.90;;;28.20;38.90;;;;;;6282692;22;20400;-76
2022/04/11 15:31:29;;;;;;;3.28;1.38;;;27.60;36.40;;;;;;6282497;22;20015;-76
2022/04/11 15:33:55;;;;;;;2.00;1.65;;;28.70;35.60;;;;;;6282990;22;20020;-76
2022/04/11 15:36:21;;;;;;;1.20;1.00;;;27.70;34.40;;;;;;6282876;22;20004;-74
2022/04/11 15:38:47;;;;;;;2.17;1.50;;;27.80;36.50;;;;;;6282852;22;20071;-74
2022/04/11 15:41:13;;;;;;;2.20;1.33;;;28.00;36.10;;;;;;6282721;22;20091;-74
2022/04/11 15:43:38;;;;;;;2.17;1.40;;;29.30;35.30;;;;;;6282480;22;20463;-73
2022/04/11 15:46:04;;;;;;;2.35;1.10;;;29.60;35.00;;;;;;6282036;22;20004;-74
2022/04/11 15:48:30;;;;;;;2.28;1.13;;;30.00;33.50;;;;;;6282451;22;20019;-74
2022/04/11 15:50:56;;;;;;;1.98;1.30;;;29.10;33.40;;;;;;6282736;22;20483;-76
2022/04/11 15:53:22;;;;;;;2.80;1.30;;;28.10;34.90;;;;;;6284813;22;20062;-78
2022/04/11 15:55:48;;;;;;;2.20;1.27;;;27.00;35.40;;;;;;6285239;22;20060;-76
2022/04/11 15:58:13;;;;;;;2.67;1.65;;;27.90;35.30;;;;;;6282103;22;20456;-76
2022/04/11 16:00:41;;;;;;;2.13;1.10;;;28.50;34.00;;;;;;6282637;22;20004;-77
2022/04/11 16:03:09;;;;;;;2.33;1.10;;;28.00;32.80;;;;;;6282710;22;20004;-77
2022/04/11 16:05:35;;;;;;;1.60;1.10;;;28.20;39.20;;;;;;6282778;22;20000;-77
2022/04/11 16:08:00;;;;;;;2.35;1.20;;;28.30;35.70;;;;;;6282736;22;20012;-78
2022/04/11 16:10:26;;;;;;;2.85;1.42;;;28.20;34.30;;;;;;6285147;22;20424;-79
2022/04/11 16:12:51;;;;;;;4.50;1.38;;;28.00;36.90;;;;;;6260582;22;20477;-80
2022/04/11 16:15:17;;;;;;;3.30;1.30;;;27.70;35.10;;;;;;6268329;22;20352;-82
2022/04/11 16:17:43;;;;;;;2.33;1.20;;;27.30;34.50;;;;;;6296696;22;20000;-78
2022/04/11 16:20:10;;;;;;;1.95;1.27;;;27.00;38.50;;;;;;6298690;22;20314;-79
2022/04/11 16:22:35;;;;;;;3.10;1.50;;;26.50;36.20;;;;;;6256600;22;20020;-77
2022/04/11 16:25:01;;;;;;;5.05;1.40;;;25.60;36.70;;;;;;6256870;22;20011;-81
2022/04/11 16:27:27;;;;;;;3.80;1.20;;;25.60;37.30;;;;;;6256943;22;20444;-77
2022/04/11 16:29:52;;;;;;;2.42;1.45;;;25.80;37.60;;;;;;6284477;22;20011;-77
2022/04/11 16:32:20;;;;;;;1.70;1.20;;;25.80;38.90;;;;;;6283833;22;20075;-80
2022/04/11 16:34:46;;;;;;;2.45;1.17;;;26.10;39.40;;;;;;6283414;22;20070;-79
2022/04/11 16:37:11;;;;;;;2.67;1.52;;;26.10;36.70;;;;;;6255163;22;20011;-79
2022/04/11 16:39:37;;;;;;;1.60;1.10;;;26.20;40.50;;;;;;6282665;22;20012;-78
2022/04/11 16:42:03;;;;;;;1.42;1.10;;;24.70;40.90;;;;;;6255181;22;20004;-78
2022/04/11 16:44:28;;;;;;;4.72;2.40;;;24.00;42.20;;;;;;6284043;22;20356;-78
2022/04/11 16:46:54;;;;;;;6.47;3.20;;;23.30;43.40;;;;;;6283926;22;20013;-77
2022/04/11 16:49:19;;;;;;;3.97;2.92;;;22.20;47.80;;;;;;6256139;22;20329;-77
2022/04/11 16:51:45;;;;;;;4.47;3.30;;;20.80;51.90;;;;;;6284180;22;20417;-79